createdAt,value
2022-08-21T00:02:16.421Z,13.30
2022-08-21T00:05:04.893Z,12.60
2022-08-21T00:07:54.294Z,12.15
2022-08-21T00:10:42.869Z,11.93
2022-08-21T00:13:31.027Z,12.23
2022-08-21T00:16:18.936Z,12.43
2022-08-21T00:19:07.846Z,13.40
2022-08-21T00:21:56.973Z,12.85
2022-08-21T00:24:46.449Z,13.70
2022-08-21T00:27:34.730Z,15.02
2022-08-21T00:30:25.846Z,15.07
2022-08-21T00:33:14.231Z,15.98
2022-08-21T00:36:03.506Z,16.55
2022-08-21T00:38:51.292Z,16.30
2022-08-21T00:41:41.741Z,16.80
2022-08-21T00:44:29.631Z,16.40
2022-08-21T00:47:17.971Z,17.00
2022-08-21T00:50:07.281Z,17.77
2022-08-21T00:52:55.116Z,17.77
2022-08-21T00:55:43.861Z,17.83
2022-08-21T00:58:36.893Z,17.00
2022-08-21T01:01:25.825Z,16.73
2022-08-21T01:04:14.581Z,14.88
2022-08-21T01:07:02.216Z,14.35
2022-08-21T01:09:50.802Z,13.40
2022-08-21T01:12:38.996Z,13.30
2022-08-21T01:15:32.911Z,13.52
2022-08-21T01:18:22.370Z,13.55
2022-08-21T01:21:14.742Z,12.25
2022-08-21T01:24:02.669Z,12.45
2022-08-21T01:26:52.131Z,11.27
2022-08-21T01:29:45.120Z,11.07
2022-08-21T01:32:33.018Z,11.73
2022-08-21T01:35:22.296Z,11.20
2022-08-21T01:38:11.568Z,10.68
2022-08-21T01:40:59.475Z,9.70
2022-08-21T01:43:47.891Z,8.40
2022-08-21T01:46:35.766Z,7.88
2022-08-21T01:49:23.821Z,7.88
2022-08-21T01:52:12.961Z,6.50
2022-08-21T01:55:02.251Z,6.40
2022-08-21T01:57:50.179Z,6.47
2022-08-21T02:00:38.588Z,6.85
2022-08-21T02:03:35.853Z,5.88
2022-08-21T02:06:24.293Z,6.88
2022-08-21T02:09:14.689Z,6.30
2022-08-21T02:12:05.093Z,5.40
2022-08-21T02:14:52.789Z,5.18
2022-08-21T02:17:43.737Z,5.13
2022-08-21T02:20:36.341Z,5.65
2022-08-21T02:23:26.870Z,4.75
2022-08-21T02:26:15.447Z,4.93
2022-08-21T02:29:06.212Z,4.35
2022-08-21T02:31:54.186Z,4.22
2022-08-21T02:34:41.686Z,4.70
2022-08-21T02:37:29.491Z,3.90
2022-08-21T02:40:19.719Z,4.07
2022-08-21T02:43:10.058Z,4.22
2022-08-21T02:46:01.077Z,4.03
2022-08-21T02:48:48.995Z,4.80
2022-08-21T02:51:37.053Z,4.47
2022-08-21T02:54:24.747Z,5.18
2022-08-21T02:57:12.729Z,4.57
2022-08-21T03:00:00.807Z,4.65
2022-08-21T03:02:50.450Z,4.35
2022-08-21T03:05:39.753Z,4.53
2022-08-21T03:08:27.997Z,4.10
2022-08-21T03:11:16.527Z,4.50
2022-08-21T03:14:06.351Z,4.50
2022-08-21T03:16:54.141Z,4.82
2022-08-21T03:19:43.552Z,5.25
2022-08-21T03:22:31.604Z,4.93
2022-08-21T03:25:19.983Z,5.47
2022-08-21T03:28:13.783Z,5.82
2022-08-21T03:31:01.664Z,5.63
2022-08-21T03:33:49.288Z,5.68
2022-08-21T03:36:38.596Z,6.05
2022-08-21T03:39:26.309Z,5.78
2022-08-21T03:42:14.432Z,6.38
2022-08-21T03:45:02.500Z,6.38
2022-08-21T03:47:55.283Z,7.43
2022-08-21T03:50:47.876Z,5.78
2022-08-21T03:53:37.944Z,6.82
2022-08-21T03:56:25.505Z,6.32
2022-08-21T03:59:13.574Z,6.63
2022-08-21T04:02:04.615Z,6.30
2022-08-21T04:04:52.868Z,5.72
2022-08-21T04:07:40.560Z,5.70
2022-08-21T04:10:31.624Z,5.65
2022-08-21T04:13:19.517Z,5.85
2022-08-21T04:16:08.371Z,6.10
2022-08-21T04:18:56.029Z,6.28
2022-08-21T04:21:44.505Z,5.35
2022-08-21T04:24:34.153Z,5.05
2022-08-21T04:27:23.283Z,5.18
2022-08-21T04:30:13.884Z,5.75
2022-08-21T04:33:01.747Z,5.55
2022-08-21T04:35:50.061Z,4.97
2022-08-21T04:38:37.951Z,5.72
2022-08-21T04:41:32.276Z,5.07
2022-08-21T04:44:21.393Z,5.10
2022-08-21T04:47:09.153Z,5.00
2022-08-21T04:49:56.903Z,4.65
2022-08-21T04:52:45.456Z,5.25
2022-08-21T04:55:33.480Z,4.63
2022-08-21T04:58:24.565Z,5.40
2022-08-21T05:01:22.736Z,5.15
2022-08-21T05:04:13.839Z,4.88
2022-08-21T05:07:05.410Z,5.45
2022-08-21T05:09:54.338Z,4.50
2022-08-21T05:12:43.662Z,4.82
2022-08-21T05:15:32.182Z,4.43
2022-08-21T05:18:21.629Z,4.35
2022-08-21T05:21:10.735Z,4.57
2022-08-21T05:23:58.518Z,4.90
2022-08-21T05:26:46.994Z,4.22
2022-08-21T05:29:35.658Z,3.83
2022-08-21T05:32:23.508Z,3.28
2022-08-21T05:35:12.988Z,3.33
2022-08-21T05:38:02.206Z,3.28
2022-08-21T05:40:50.462Z,3.35
2022-08-21T05:43:38.352Z,4.93
2022-08-21T05:46:26.408Z,3.20
2022-08-21T05:49:14.439Z,2.80
2022-08-21T05:52:04.674Z,2.70
2022-08-21T05:54:54.936Z,2.83
2022-08-21T05:57:43.347Z,3.30
2022-08-21T06:00:31.355Z,3.20
2022-08-21T06:03:21.732Z,2.78
2022-08-21T06:06:10.351Z,3.00
2022-08-21T06:08:59.676Z,2.60
2022-08-21T06:11:47.434Z,2.40
2022-08-21T06:14:35.398Z,2.05
2022-08-21T06:17:22.968Z,2.60
2022-08-21T06:20:12.057Z,2.35
2022-08-21T06:23:00.380Z,2.65
2022-08-21T06:25:49.844Z,2.30
2022-08-21T06:28:38.942Z,2.72
2022-08-21T06:31:28.969Z,2.65
2022-08-21T06:34:17.299Z,2.83
2022-08-21T06:37:05.901Z,2.55
2022-08-21T06:39:53.763Z,2.85
2022-08-21T06:42:43.064Z,2.60
2022-08-21T06:45:31.698Z,2.67
2022-08-21T06:48:20.383Z,3.38
2022-08-21T06:51:08.331Z,4.32
2022-08-21T06:53:56.485Z,4.00
2022-08-21T06:56:47.490Z,4.40
2022-08-21T06:59:36.786Z,4.80
2022-08-21T07:02:24.449Z,5.95
2022-08-21T07:05:18.187Z,4.82
2022-08-21T07:08:06.535Z,6.15
2022-08-21T07:10:55.777Z,6.32
2022-08-21T07:13:43.841Z,6.97
2022-08-21T07:16:33.114Z,6.97
2022-08-21T07:19:21.149Z,7.72
2022-08-21T07:22:08.916Z,9.10
2022-08-21T07:24:56.947Z,7.53
2022-08-21T07:27:44.570Z,7.20
2022-08-21T07:30:32.758Z,6.30
2022-08-21T07:33:22.093Z,6.35
2022-08-21T07:36:10.776Z,7.30
2022-08-21T07:38:58.830Z,6.10
2022-08-21T07:41:47.042Z,6.57
2022-08-21T07:44:35.438Z,5.10
2022-08-21T07:47:29.320Z,5.70
2022-08-21T07:50:31.084Z,5.80
2022-08-21T07:53:19.511Z,6.53
2022-08-21T07:56:09.436Z,4.35
2022-08-21T07:58:58.654Z,6.30
2022-08-21T08:01:46.602Z,5.57
2022-08-21T08:04:34.594Z,4.20
2022-08-21T08:07:23.912Z,4.93
2022-08-21T08:10:13.114Z,4.47
2022-08-21T08:13:01.136Z,4.43
2022-08-21T08:15:48.842Z,4.82
2022-08-21T08:18:36.847Z,4.40
2022-08-21T08:21:24.549Z,5.07
2022-08-21T08:24:19.116Z,4.22
2022-08-21T08:27:07.207Z,4.68
2022-08-21T08:29:54.923Z,4.75
2022-08-21T08:32:42.942Z,4.10
2022-08-21T08:35:30.528Z,4.50
2022-08-21T08:38:24.301Z,4.22
2022-08-21T08:41:17.868Z,3.83
2022-08-21T08:44:08.414Z,3.40
2022-08-21T08:46:58.115Z,5.03
2022-08-21T08:50:06.663Z,3.58
2022-08-21T08:53:00.438Z,3.33
2022-08-21T08:55:50.466Z,3.50
2022-08-21T08:58:44.597Z,3.30
2022-08-21T09:01:36.684Z,3.20
2022-08-21T09:04:30.023Z,3.33
2022-08-21T09:07:25.305Z,3.22
2022-08-21T09:10:18.728Z,2.90
2022-08-21T09:13:14.674Z,4.03
2022-08-21T09:16:13.979Z,2.60
2022-08-21T09:19:10.447Z,2.33
2022-08-21T09:22:05.645Z,2.75
2022-08-21T09:25:04.522Z,2.40
2022-08-21T09:27:52.758Z,2.15
2022-08-21T09:30:43.223Z,2.63
2022-08-21T09:33:32.996Z,1.98
2022-08-21T09:36:28.596Z,2.58
2022-08-21T09:39:30.741Z,2.03
2022-08-21T09:42:26.296Z,2.47
2022-08-21T09:45:18.001Z,1.90
2022-08-21T09:48:14.219Z,2.10
2022-08-21T09:51:12.999Z,1.95
2022-08-21T09:54:18.565Z,1.90
2022-08-21T09:57:35.727Z,1.83
2022-08-21T10:00:30.799Z,1.80
2022-08-21T10:03:21.013Z,2.10
2022-08-21T10:06:14.257Z,2.00
2022-08-21T10:09:18.859Z,1.83
2022-08-21T10:12:18.153Z,1.83
2022-08-21T10:15:15.167Z,2.55
2022-08-21T10:18:12.176Z,2.15
2022-08-21T10:21:11.370Z,3.03
2022-08-21T10:24:30.517Z,3.13
2022-08-21T10:27:27.612Z,2.70
2022-08-21T10:30:20.163Z,4.20
2022-08-21T10:33:22.460Z,3.25
2022-08-21T10:36:16.911Z,2.88
2022-08-21T10:39:26.725Z,3.35
2022-08-21T10:42:41.249Z,3.20
2022-08-21T10:45:45.259Z,3.85
2022-08-21T10:48:39.309Z,3.45
2022-08-21T10:51:36.269Z,4.70
2022-08-21T10:54:34.935Z,3.38
2022-08-21T10:57:32.406Z,3.33
2022-08-21T11:00:23.417Z,3.50
2022-08-21T11:03:15.689Z,3.47
2022-08-21T11:06:11.156Z,3.28
2022-08-21T11:09:06.076Z,3.55
2022-08-21T11:12:10.846Z,3.08
2022-08-21T11:15:02.900Z,3.28
2022-08-21T11:17:57.476Z,4.05
2022-08-21T11:20:51.161Z,3.30
2022-08-21T11:23:47.498Z,3.45
2022-08-21T11:26:43.539Z,4.80
2022-08-21T11:29:35.962Z,5.90
2022-08-21T11:32:59.273Z,4.43
2022-08-21T11:35:52.366Z,4.00
2022-08-21T11:38:44.243Z,3.60
2022-08-21T11:41:36.897Z,3.78
2022-08-21T11:44:35.579Z,3.10
2022-08-21T11:47:35.959Z,4.10
2022-08-21T11:50:35.605Z,5.70
2022-08-21T11:53:31.071Z,4.15
2022-08-21T11:56:23.407Z,3.42
2022-08-21T11:59:21.777Z,4.85
2022-08-21T12:02:16.377Z,5.55
2022-08-21T12:05:09.296Z,4.20
2022-08-21T12:08:08.004Z,4.20
2022-08-21T12:11:04.037Z,3.50
2022-08-21T12:13:57.962Z,4.20
2022-08-21T12:16:47.992Z,3.88
2022-08-21T12:19:36.187Z,3.78
2022-08-21T12:22:39.359Z,3.40
2022-08-21T12:25:41.897Z,6.07
2022-08-21T12:28:32.093Z,4.38
2022-08-21T12:31:25.370Z,3.70
2022-08-21T12:34:13.424Z,3.47
2022-08-21T12:37:04.828Z,4.20
2022-08-21T12:39:57.234Z,5.22
2022-08-21T12:42:58.550Z,4.85
2022-08-21T12:45:49.636Z,3.50
2022-08-21T12:48:46.325Z,3.92
2022-08-21T12:51:43.383Z,4.00
2022-08-21T12:54:34.345Z,4.32
2022-08-21T12:57:28.603Z,4.40
2022-08-21T13:00:23.839Z,4.22
2022-08-21T13:03:11.750Z,4.30
2022-08-21T13:06:00.864Z,5.57
2022-08-21T13:08:50.167Z,5.40
2022-08-21T13:11:38.274Z,5.22
2022-08-21T13:14:35.775Z,4.88
2022-08-21T13:17:37.305Z,5.88
2022-08-21T13:20:30.683Z,3.85
2022-08-21T13:23:32.172Z,3.97
2022-08-21T13:26:24.335Z,5.05
2022-08-21T13:29:14.638Z,4.32
2022-08-21T13:32:07.898Z,4.45
2022-08-21T13:34:55.695Z,3.88
2022-08-21T13:37:44.474Z,4.65
2022-08-21T13:40:34.429Z,4.65
2022-08-21T13:43:24.876Z,5.63
2022-08-21T13:46:15.772Z,4.30
2022-08-21T13:49:07.076Z,5.13
2022-08-21T13:51:55.776Z,4.30
2022-08-21T13:54:45.764Z,5.13
2022-08-21T13:57:36.015Z,4.38
2022-08-21T14:00:29.210Z,4.22
2022-08-21T14:03:30.327Z,4.68
2022-08-21T14:06:22.751Z,4.72
2022-08-21T14:09:12.730Z,7.63
2022-08-21T14:12:05.071Z,4.72
2022-08-21T14:14:55.386Z,4.78
2022-08-21T14:17:43.915Z,5.05
2022-08-21T14:20:34.884Z,5.05
2022-08-21T14:23:28.482Z,5.03
2022-08-21T14:26:20.978Z,5.57
2022-08-21T14:29:11.005Z,7.05
2022-08-21T14:32:00.640Z,4.82
2022-08-21T14:34:48.399Z,5.32
2022-08-21T14:37:37.379Z,5.68
2022-08-21T14:40:27.629Z,5.93
2022-08-21T14:43:15.629Z,9.27
2022-08-21T14:46:03.779Z,5.45
2022-08-21T14:48:51.997Z,6.00
2022-08-21T14:51:54.041Z,6.28
2022-08-21T14:54:42.110Z,6.05
2022-08-21T14:57:33.120Z,5.93
2022-08-21T15:00:26.949Z,5.32
2022-08-21T15:03:23.678Z,5.53
2022-08-21T15:06:12.368Z,5.50
2022-08-21T15:09:00.249Z,5.30
2022-08-21T15:11:48.092Z,6.38
2022-08-21T15:14:41.154Z,5.85
2022-08-21T15:17:29.632Z,6.20
2022-08-21T15:20:17.635Z,6.35
2022-08-21T15:23:08.241Z,6.35
2022-08-21T15:25:59.800Z,6.65
2022-08-21T15:28:48.212Z,6.53
2022-08-21T15:31:37.702Z,6.50
2022-08-21T15:34:28.258Z,7.28
2022-08-21T15:37:15.921Z,6.45
2022-08-21T15:40:03.780Z,7.50
2022-08-21T15:42:54.077Z,6.45
2022-08-21T15:45:41.975Z,6.90
2022-08-21T15:48:31.550Z,6.45
2022-08-21T15:51:19.593Z,6.28
2022-08-21T15:54:07.391Z,5.97
2022-08-21T15:56:58.640Z,6.93
2022-08-21T15:59:56.713Z,6.47
2022-08-21T16:02:48.496Z,6.15
2022-08-21T16:05:37.361Z,6.35
2022-08-21T16:08:26.095Z,6.28
2022-08-21T16:11:15.560Z,6.90
2022-08-21T16:14:03.523Z,5.60
2022-08-21T16:16:51.411Z,6.50
2022-08-21T16:19:39.684Z,5.28
2022-08-21T16:22:44.448Z,5.63
2022-08-21T16:25:35.119Z,4.72
2022-08-21T16:28:24.806Z,4.78
2022-08-21T16:31:12.914Z,4.95
2022-08-21T16:34:03.724Z,5.80
2022-08-21T16:36:51.871Z,4.88
2022-08-21T16:39:41.421Z,4.15
2022-08-21T16:42:29.462Z,4.60
2022-08-21T16:45:19.184Z,4.47
2022-08-21T16:48:09.814Z,5.13
2022-08-21T16:50:57.988Z,4.70
2022-08-21T16:53:47.044Z,4.65
2022-08-21T16:56:39.770Z,4.90
2022-08-21T16:59:28.922Z,5.20
2022-08-21T17:02:27.148Z,5.20
2022-08-21T17:05:15.496Z,5.07
2022-08-21T17:08:03.449Z,4.78
2022-08-21T17:10:52.321Z,4.47
2022-08-21T17:13:42.108Z,4.97
2022-08-21T17:16:30.298Z,4.72
2022-08-21T17:19:19.068Z,4.60
2022-08-21T17:22:08.752Z,4.22
2022-08-21T17:24:56.657Z,3.90
2022-08-21T17:27:45.105Z,4.43
2022-08-21T17:30:34.739Z,5.20
2022-08-21T17:33:23.173Z,3.70
2022-08-21T17:36:10.918Z,3.67
2022-08-21T17:38:59.526Z,6.40
2022-08-21T17:41:47.822Z,3.63
2022-08-21T17:44:41.537Z,3.92
2022-08-21T17:47:30.497Z,3.65
2022-08-21T17:50:22.835Z,3.60
2022-08-21T17:53:10.789Z,3.83
2022-08-21T17:55:58.832Z,3.63
2022-08-21T17:58:50.664Z,3.80
2022-08-21T18:01:42.879Z,4.07
2022-08-21T18:04:39.052Z,3.47
2022-08-21T18:07:32.041Z,3.80
2022-08-21T18:10:20.911Z,3.78
2022-08-21T18:13:11.985Z,4.75
2022-08-21T18:16:01.379Z,3.83
2022-08-21T18:18:52.989Z,4.18
2022-08-21T18:21:42.665Z,3.40
2022-08-21T18:24:30.692Z,3.47
2022-08-21T18:27:19.596Z,2.90
2022-08-21T18:30:08.053Z,3.35
2022-08-21T18:32:56.652Z,3.38
2022-08-21T18:35:44.680Z,3.15
2022-08-21T18:38:35.749Z,3.78
2022-08-21T18:41:23.886Z,2.83
2022-08-21T18:44:13.992Z,3.78
2022-08-21T18:47:03.635Z,2.50
2022-08-21T18:49:51.673Z,2.85
2022-08-21T18:52:52.781Z,3.72
2022-08-21T18:55:45.413Z,3.05
2022-08-21T18:58:33.524Z,2.95
2022-08-21T19:01:22.016Z,3.35
2022-08-21T19:04:25.245Z,2.88
2022-08-21T19:07:21.813Z,3.25
2022-08-21T19:10:28.293Z,3.35
2022-08-21T19:13:22.044Z,3.40
2022-08-21T19:16:11.117Z,2.72
2022-08-21T19:19:00.927Z,2.90
2022-08-21T19:21:49.566Z,4.47
2022-08-21T19:24:37.426Z,3.53
2022-08-21T19:27:25.745Z,3.60
2022-08-21T19:30:15.450Z,4.60
2022-08-21T19:33:03.488Z,3.72
2022-08-21T19:35:52.686Z,6.80
2022-08-21T19:38:41.259Z,5.60
2022-08-21T19:41:33.762Z,4.28
2022-08-21T19:44:26.801Z,3.90
2022-08-21T19:47:19.166Z,4.03
2022-08-21T19:50:17.410Z,4.95
2022-08-21T19:53:11.983Z,5.22
2022-08-21T19:56:00.363Z,3.70
2022-08-21T19:58:49.941Z,3.85
2022-08-21T20:01:39.959Z,4.07
2022-08-21T20:04:29.458Z,3.60
2022-08-21T20:07:18.126Z,4.07
2022-08-21T20:10:15.043Z,3.78
2022-08-21T20:13:02.981Z,3.85
2022-08-21T20:15:50.989Z,4.20
2022-08-21T20:18:41.481Z,5.22
2022-08-21T20:21:31.234Z,5.40
2022-08-21T20:24:31.309Z,6.30
2022-08-21T20:27:24.942Z,4.90
2022-08-21T20:30:13.971Z,4.30
2022-08-21T20:33:01.806Z,6.65
2022-08-21T20:35:51.324Z,5.25
2022-08-21T20:38:40.739Z,5.05
2022-08-21T20:41:30.575Z,5.40
2022-08-21T20:44:18.674Z,6.32
2022-08-21T20:50:21.422Z,5.57
2022-08-21T20:53:15.678Z,5.30
2022-08-21T20:56:12.769Z,5.18
2022-08-21T20:59:10.182Z,6.55
2022-08-21T21:02:17.880Z,5.72
2022-08-21T21:05:19.440Z,5.65
2022-08-21T21:08:13.402Z,6.38
2022-08-21T21:11:06.060Z,6.35
2022-08-21T21:13:58.412Z,6.07
2022-08-21T21:16:51.000Z,7.20
2022-08-21T21:19:47.773Z,6.82
2022-08-21T21:22:41.400Z,6.45
2022-08-21T21:25:39.797Z,7.57
2022-08-21T21:28:39.594Z,6.05
2022-08-21T21:31:31.184Z,7.13
2022-08-21T21:34:20.699Z,5.90
2022-08-21T21:37:14.246Z,8.27
2022-08-21T21:40:35.149Z,6.60
2022-08-21T21:43:40.678Z,5.93
2022-08-21T21:46:36.108Z,6.32
2022-08-21T21:49:36.987Z,5.32
2022-08-21T21:52:45.034Z,5.88
2022-08-21T21:55:45.514Z,6.55
2022-08-21T21:59:19.038Z,6.50
2022-08-21T22:02:13.538Z,6.32
2022-08-21T22:05:07.398Z,6.50
2022-08-21T22:08:01.926Z,7.38
2022-08-21T22:11:00.387Z,5.95
2022-08-21T22:14:05.040Z,6.00
2022-08-21T22:16:52.890Z,5.97
2022-08-21T22:19:43.108Z,6.07
2022-08-21T22:22:36.273Z,6.20
2022-08-21T22:25:28.075Z,6.03
2022-08-21T22:28:17.770Z,5.82
2022-08-21T22:31:22.783Z,7.25
2022-08-21T22:37:20.760Z,5.47
2022-08-21T22:40:10.726Z,5.88
2022-08-21T22:43:02.537Z,5.72
2022-08-21T22:46:00.687Z,5.63
2022-08-21T22:48:55.870Z,5.45
2022-08-21T22:51:46.739Z,5.63
2022-08-21T22:54:37.742Z,5.18
2022-08-21T22:57:29.103Z,5.20
2022-08-21T23:00:35.759Z,5.82
2022-08-21T23:03:31.800Z,4.95
2022-08-21T23:06:28.907Z,6.38
2022-08-21T23:09:23.638Z,5.63
2022-08-21T23:12:33.061Z,6.82
2022-08-21T23:15:23.088Z,6.55
2022-08-21T23:18:19.351Z,6.35
2022-08-21T23:21:20.898Z,7.85
2022-08-21T23:24:35.041Z,5.78
2022-08-21T23:27:38.742Z,5.75
2022-08-21T23:30:39.737Z,5.97
2022-08-21T23:33:43.047Z,5.85
2022-08-21T23:37:01.223Z,5.47
2022-08-21T23:39:59.676Z,5.35
2022-08-21T23:43:04.238Z,5.22
2022-08-21T23:46:20.939Z,5.15
2022-08-21T23:49:31.717Z,5.80
2022-08-21T23:52:31.445Z,4.80
2022-08-21T23:55:32.546Z,5.30
2022-08-21T23:58:33.800Z,4.93
